Terminal Aerodrome Forecast
Issued by NWS San Angelo, TX

Home | Current Version | Previous Version | Text Only | Print | Product List | Glossary On
Versions: 1 2 3 4 5 6 7 8 9 10 11 12 13 14 15 16 17 18 19 20 21 22
000
FTUS44 KSJT 210500
TAFSJT
TAF
KSJT 210532Z 2106/2206 VRB06KT P6SM SKC
     FM211300 16010KT P6SM BKN025
     FM211600 18017G25KT P6SM SCT025
     FM220200 16010KT P6SM SKC=

USA.gov is the U.S. government's official web portal to all federal, state and local government web resources and services.